sensor_id;sensor_type;location;lat;lon;timestamp;P1;durP1;ratioP1;P2;durP2;ratioP2
19414;SDS011;9843;48.882;12.592;2023-01-10T00:01:31;4.50;;;4.13;;
19414;SDS011;9843;48.882;12.592;2023-01-10T00:03:58;5.17;;;4.77;;
19414;SDS011;9843;48.882;12.592;2023-01-10T00:06:25;4.70;;;4.20;;
19414;SDS011;9843;48.882;12.592;2023-01-10T00:08:52;3.90;;;3.53;;
19414;SDS011;9843;48.882;12.592;2023-01-10T00:11:21;4.93;;;4.17;;
19414;SDS011;9843;48.882;12.592;2023-01-10T00:14:08;4.40;;;4.00;;
19414;SDS011;9843;48.882;12.592;2023-01-10T00:16:36;4.63;;;4.23;;
19414;SDS011;9843;48.882;12.592;2023-01-10T00:19:03;5.30;;;4.80;;
19414;SDS011;9843;48.882;12.592;2023-01-10T00:21:30;3.87;;;3.50;;
19414;SDS011;9843;48.882;12.592;2023-01-10T00:23:57;3.90;;;3.60;;
19414;SDS011;9843;48.882;12.592;2023-01-10T00:26:39;4.03;;;3.73;;
19414;SDS011;9843;48.882;12.592;2023-01-10T00:29:08;7.30;;;5.70;;
19414;SDS011;9843;48.882;12.592;2023-01-10T00:31:36;6.17;;;4.60;;
19414;SDS011;9843;48.882;12.592;2023-01-10T00:34:03;6.17;;;4.13;;
19414;SDS011;9843;48.882;12.592;2023-01-10T00:36:31;7.07;;;6.03;;
19414;SDS011;9843;48.882;12.592;2023-01-10T00:38:58;6.03;;;4.07;;
19414;SDS011;9843;48.882;12.592;2023-01-10T00:41:25;5.23;;;4.73;;
19414;SDS011;9843;48.882;12.592;2023-01-10T00:44:11;5.03;;;4.60;;
19414;SDS011;9843;48.882;12.592;2023-01-10T00:46:38;4.83;;;4.43;;
19414;SDS011;9843;48.882;12.592;2023-01-10T00:49:05;5.43;;;4.93;;
19414;SDS011;9843;48.882;12.592;2023-01-10T00:51:33;5.63;;;5.10;;
19414;SDS011;9843;48.882;12.592;2023-01-10T00:54:00;4.33;;;3.93;;
19414;SDS011;9843;48.882;12.592;2023-01-10T00:56:27;9.23;;;6.10;;
19414;SDS011;9843;48.882;12.592;2023-01-10T00:58:54;5.87;;;5.20;;
19414;SDS011;9843;48.882;12.592;2023-01-10T01:01:23;7.33;;;4.17;;
19414;SDS011;9843;48.882;12.592;2023-01-10T01:03:50;5.13;;;4.57;;
19414;SDS011;9843;48.882;12.592;2023-01-10T01:06:17;5.73;;;4.73;;
19414;SDS011;9843;48.882;12.592;2023-01-10T01:08:44;6.17;;;4.77;;
19414;SDS011;9843;48.882;12.592;2023-01-10T01:11:11;4.73;;;4.33;;
19414;SDS011;9843;48.882;12.592;2023-01-10T01:13:38;5.30;;;3.83;;
19414;SDS011;9843;48.882;12.592;2023-01-10T01:16:05;4.83;;;3.53;;
19414;SDS011;9843;48.882;12.592;2023-01-10T01:18:34;6.27;;;4.03;;
19414;SDS011;9843;48.882;12.592;2023-01-10T01:21:01;4.47;;;3.73;;
19414;SDS011;9843;48.882;12.592;2023-01-10T01:23:31;4.73;;;3.40;;
19414;SDS011;9843;48.882;12.592;2023-01-10T01:25:58;4.53;;;4.13;;
19414;SDS011;9843;48.882;12.592;2023-01-10T01:28:25;5.83;;;3.70;;
19414;SDS011;9843;48.882;12.592;2023-01-10T01:30:53;3.50;;;3.27;;
19414;SDS011;9843;48.882;12.592;2023-01-10T01:33:20;4.43;;;3.83;;
19414;SDS011;9843;48.882;12.592;2023-01-10T01:35:48;3.43;;;3.20;;
19414;SDS011;9843;48.882;12.592;2023-01-10T01:38:15;4.73;;;4.13;;
19414;SDS011;9843;48.882;12.592;2023-01-10T01:40:42;3.40;;;3.20;;
19414;SDS011;9843;48.882;12.592;2023-01-10T01:43:17;4.00;;;3.63;;
19414;SDS011;9843;48.882;12.592;2023-01-10T01:45:46;9.40;;;4.40;;
19414;SDS011;9843;48.882;12.592;2023-01-10T01:48:14;3.93;;;3.73;;
19414;SDS011;9843;48.882;12.592;2023-01-10T01:50:43;3.47;;;3.27;;
19414;SDS011;9843;48.882;12.592;2023-01-10T01:53:15;3.50;;;3.20;;
19414;SDS011;9843;48.882;12.592;2023-01-10T01:55:44;3.70;;;2.97;;
19414;SDS011;9843;48.882;12.592;2023-01-10T01:58:13;4.63;;;3.47;;
19414;SDS011;9843;48.882;12.592;2023-01-10T02:00:42;3.10;;;2.77;;
19414;SDS011;9843;48.882;12.592;2023-01-10T02:03:09;5.33;;;3.03;;
19414;SDS011;9843;48.882;12.592;2023-01-10T03:34:22;5.00;;;4.63;;
19414;SDS011;9843;48.882;12.592;2023-01-10T03:36:51;5.17;;;4.67;;
19414;SDS011;9843;48.882;12.592;2023-01-10T03:39:22;5.40;;;4.90;;
19414;SDS011;9843;48.882;12.592;2023-01-10T03:41:51;4.73;;;4.33;;
19414;SDS011;9843;48.882;12.592;2023-01-10T03:44:21;5.80;;;4.43;;
19414;SDS011;9843;48.882;12.592;2023-01-10T03:47:08;5.43;;;4.93;;
19414;SDS011;9843;48.882;12.592;2023-01-10T03:49:37;4.60;;;4.30;;
19414;SDS011;9843;48.882;12.592;2023-01-10T03:52:06;7.17;;;6.53;;
19414;SDS011;9843;48.882;12.592;2023-01-10T03:54:34;6.13;;;5.63;;
19414;SDS011;9843;48.882;12.592;2023-01-10T03:57:01;5.17;;;4.77;;
19414;SDS011;9843;48.882;12.592;2023-01-10T03:59:28;6.97;;;6.30;;
19414;SDS011;9843;48.882;12.592;2023-01-10T04:01:55;5.17;;;4.70;;
19414;SDS011;9843;48.882;12.592;2023-01-10T04:04:22;5.20;;;4.73;;
19414;SDS011;9843;48.882;12.592;2023-01-10T04:06:51;6.43;;;5.73;;
19414;SDS011;9843;48.882;12.592;2023-01-10T04:09:18;5.93;;;5.43;;
19414;SDS011;9843;48.882;12.592;2023-01-10T04:11:45;5.43;;;4.93;;
19414;SDS011;9843;48.882;12.592;2023-01-10T04:14:12;5.50;;;5.00;;
19414;SDS011;9843;48.882;12.592;2023-01-10T04:16:39;5.60;;;5.17;;
19414;SDS011;9843;48.882;12.592;2023-01-10T04:19:06;5.50;;;5.00;;
19414;SDS011;9843;48.882;12.592;2023-01-10T04:21:33;6.97;;;6.27;;
19414;SDS011;9843;48.882;12.592;2023-01-10T04:24:01;7.63;;;6.37;;
19414;SDS011;9843;48.882;12.592;2023-01-10T04:26:28;6.37;;;5.77;;
19414;SDS011;9843;48.882;12.592;2023-01-10T04:28:55;6.47;;;5.97;;
19414;SDS011;9843;48.882;12.592;2023-01-10T04:31:22;6.27;;;5.67;;
19414;SDS011;9843;48.882;12.592;2023-01-10T04:33:50;6.90;;;6.30;;
19414;SDS011;9843;48.882;12.592;2023-01-10T04:36:17;7.10;;;6.40;;
19414;SDS011;9843;48.882;12.592;2023-01-10T04:38:45;9.87;;;6.77;;
19414;SDS011;9843;48.882;12.592;2023-01-10T04:41:13;7.13;;;6.17;;
19414;SDS011;9843;48.882;12.592;2023-01-10T04:43:40;6.10;;;5.60;;
19414;SDS011;9843;48.882;12.592;2023-01-10T04:46:07;7.10;;;6.40;;
19414;SDS011;9843;48.882;12.592;2023-01-10T04:48:34;8.00;;;4.93;;
19414;SDS011;9843;48.882;12.592;2023-01-10T04:51:01;5.90;;;5.30;;
19414;SDS011;9843;48.882;12.592;2023-01-10T04:53:28;6.80;;;6.03;;
19414;SDS011;9843;48.882;12.592;2023-01-10T04:56:00;6.40;;;5.80;;
19414;SDS011;9843;48.882;12.592;2023-01-10T04:58:29;5.53;;;5.03;;
19414;SDS011;9843;48.882;12.592;2023-01-10T05:00:57;6.00;;;5.43;;
19414;SDS011;9843;48.882;12.592;2023-01-10T05:03:24;7.07;;;5.93;;
19414;SDS011;9843;48.882;12.592;2023-01-10T05:05:52;6.73;;;5.27;;
19414;SDS011;9843;48.882;12.592;2023-01-10T05:08:19;5.87;;;5.37;;
19414;SDS011;9843;48.882;12.592;2023-01-10T05:10:46;7.10;;;5.07;;
19414;SDS011;9843;48.882;12.592;2023-01-10T05:13:13;7.00;;;5.20;;
19414;SDS011;9843;48.882;12.592;2023-01-10T05:15:41;5.90;;;5.30;;
19414;SDS011;9843;48.882;12.592;2023-01-10T05:18:08;6.07;;;5.57;;
19414;SDS011;9843;48.882;12.592;2023-01-10T05:20:35;7.03;;;5.40;;
19414;SDS011;9843;48.882;12.592;2023-01-10T05:23:02;5.57;;;5.07;;
19414;SDS011;9843;48.882;12.592;2023-01-10T05:25:29;5.73;;;5.27;;
19414;SDS011;9843;48.882;12.592;2023-01-10T05:27:56;6.73;;;6.13;;
19414;SDS011;9843;48.882;12.592;2023-01-10T05:30:23;6.80;;;6.13;;
19414;SDS011;9843;48.882;12.592;2023-01-10T05:32:51;14.87;;;6.63;;
19414;SDS011;9843;48.882;12.592;2023-01-10T05:35:18;6.90;;;6.30;;
19414;SDS011;9843;48.882;12.592;2023-01-10T05:37:45;6.23;;;5.63;;
19414;SDS011;9843;48.882;12.592;2023-01-10T05:40:13;6.97;;;6.33;;
19414;SDS011;9843;48.882;12.592;2023-01-10T05:42:40;8.20;;;7.40;;
19414;SDS011;9843;48.882;12.592;2023-01-10T05:45:07;6.73;;;6.03;;
19414;SDS011;9843;48.882;12.592;2023-01-10T05:47:34;9.77;;;6.83;;
19414;SDS011;9843;48.882;12.592;2023-01-10T05:50:03;6.93;;;5.87;;
19414;SDS011;9843;48.882;12.592;2023-01-10T05:52:30;7.17;;;6.43;;
19414;SDS011;9843;48.882;12.592;2023-01-10T05:54:57;6.77;;;6.07;;
19414;SDS011;9843;48.882;12.592;2023-01-10T05:57:24;7.60;;;6.90;;
19414;SDS011;9843;48.882;12.592;2023-01-10T05:59:51;8.27;;;7.40;;
19414;SDS011;9843;48.882;12.592;2023-01-10T06:02:18;8.33;;;6.83;;
19414;SDS011;9843;48.882;12.592;2023-01-10T06:04:45;7.17;;;6.13;;
19414;SDS011;9843;48.882;12.592;2023-01-10T06:07:14;7.57;;;6.87;;
19414;SDS011;9843;48.882;12.592;2023-01-10T06:09:41;8.00;;;6.57;;
19414;SDS011;9843;48.882;12.592;2023-01-10T06:12:08;7.70;;;7.00;;
19414;SDS011;9843;48.882;12.592;2023-01-10T06:14:35;8.77;;;7.90;;
19414;SDS011;9843;48.882;12.592;2023-01-10T06:17:02;8.83;;;7.93;;
19414;SDS011;9843;48.882;12.592;2023-01-10T06:19:34;10.50;;;7.17;;
19414;SDS011;9843;48.882;12.592;2023-01-10T06:22:01;9.87;;;7.87;;
19414;SDS011;9843;48.882;12.592;2023-01-10T06:24:30;7.63;;;6.90;;
19414;SDS011;9843;48.882;12.592;2023-01-10T06:26:57;7.57;;;6.93;;
19414;SDS011;9843;48.882;12.592;2023-01-10T06:29:24;8.87;;;7.97;;
19414;SDS011;9843;48.882;12.592;2023-01-10T06:31:51;9.57;;;7.13;;
19414;SDS011;9843;48.882;12.592;2023-01-10T06:34:18;9.50;;;7.23;;
19414;SDS011;9843;48.882;12.592;2023-01-10T06:36:45;7.93;;;7.13;;
19414;SDS011;9843;48.882;12.592;2023-01-10T06:39:12;7.57;;;6.90;;
19414;SDS011;9843;48.882;12.592;2023-01-10T06:41:40;8.63;;;7.77;;
19414;SDS011;9843;48.882;12.592;2023-01-10T06:44:07;9.63;;;8.73;;
19414;SDS011;9843;48.882;12.592;2023-01-10T06:46:34;9.37;;;8.47;;
19414;SDS011;9843;48.882;12.592;2023-01-10T06:49:01;9.40;;;8.40;;
19414;SDS011;9843;48.882;12.592;2023-01-10T06:51:28;10.97;;;9.90;;
19414;SDS011;9843;48.882;12.592;2023-01-10T06:53:55;9.00;;;8.10;;
19414;SDS011;9843;48.882;12.592;2023-01-10T06:56:22;9.37;;;8.47;;
19414;SDS011;9843;48.882;12.592;2023-01-10T06:58:51;9.97;;;8.53;;
19414;SDS011;9843;48.882;12.592;2023-01-10T07:01:19;11.20;;;9.27;;
19414;SDS011;9843;48.882;12.592;2023-01-10T07:03:46;13.53;;;8.20;;
19414;SDS011;9843;48.882;12.592;2023-01-10T07:06:13;10.33;;;7.83;;
19414;SDS011;9843;48.882;12.592;2023-01-10T07:08:41;9.63;;;7.87;;
19414;SDS011;9843;48.882;12.592;2023-01-10T07:11:09;10.70;;;8.13;;
19414;SDS011;9843;48.882;12.592;2023-01-10T07:13:37;10.10;;;7.87;;
19414;SDS011;9843;48.882;12.592;2023-01-10T07:16:06;11.53;;;8.43;;
19414;SDS011;9843;48.882;12.592;2023-01-10T07:18:33;9.60;;;8.60;;
19414;SDS011;9843;48.882;12.592;2023-01-10T07:21:00;9.70;;;8.53;;
19414;SDS011;9843;48.882;12.592;2023-01-10T07:23:28;17.33;;;10.30;;
19414;SDS011;9843;48.882;12.592;2023-01-10T07:25:55;15.43;;;8.73;;
19414;SDS011;9843;48.882;12.592;2023-01-10T07:28:22;7.97;;;7.17;;
19414;SDS011;9843;48.882;12.592;2023-01-10T07:30:49;9.47;;;7.73;;
19414;SDS011;9843;48.882;12.592;2023-01-10T07:33:18;13.83;;;7.30;;
19414;SDS011;9843;48.882;12.592;2023-01-10T07:35:45;9.93;;;8.90;;
19414;SDS011;9843;48.882;12.592;2023-01-10T07:38:12;11.77;;;10.57;;
19414;SDS011;9843;48.882;12.592;2023-01-10T07:40:39;9.30;;;8.43;;
19414;SDS011;9843;48.882;12.592;2023-01-10T07:43:06;9.20;;;6.97;;
19414;SDS011;9843;48.882;12.592;2023-01-10T07:45:33;11.73;;;8.87;;
19414;SDS011;9843;48.882;12.592;2023-01-10T07:48:01;10.07;;;8.50;;
19414;SDS011;9843;48.882;12.592;2023-01-10T07:50:31;11.73;;;7.07;;
19414;SDS011;9843;48.882;12.592;2023-01-10T07:52:59;8.47;;;7.67;;
19414;SDS011;9843;48.882;12.592;2023-01-10T07:55:26;8.20;;;7.40;;
19414;SDS011;9843;48.882;12.592;2023-01-10T07:57:53;9.53;;;8.23;;
19414;SDS011;9843;48.882;12.592;2023-01-10T08:00:21;8.33;;;7.43;;
19414;SDS011;9843;48.882;12.592;2023-01-10T08:02:51;8.97;;;8.10;;
19414;SDS011;9843;48.882;12.592;2023-01-10T08:05:19;17.33;;;8.33;;
19414;SDS011;9843;48.882;12.592;2023-01-10T08:07:48;10.27;;;8.53;;
19414;SDS011;9843;48.882;12.592;2023-01-10T08:10:15;9.90;;;8.90;;
19414;SDS011;9843;48.882;12.592;2023-01-10T08:12:42;11.27;;;9.53;;
19414;SDS011;9843;48.882;12.592;2023-01-10T08:15:09;11.83;;;10.63;;
19414;SDS011;9843;48.882;12.592;2023-01-10T08:17:37;11.47;;;10.30;;
19414;SDS011;9843;48.882;12.592;2023-01-10T08:20:04;16.60;;;11.47;;
19414;SDS011;9843;48.882;12.592;2023-01-10T08:22:31;9.77;;;8.77;;
19414;SDS011;9843;48.882;12.592;2023-01-10T08:24:59;13.83;;;12.43;;
19414;SDS011;9843;48.882;12.592;2023-01-10T08:27:26;15.87;;;13.43;;
19414;SDS011;9843;48.882;12.592;2023-01-10T08:29:53;11.13;;;10.03;;
19414;SDS011;9843;48.882;12.592;2023-01-10T08:32:20;10.43;;;8.87;;
19414;SDS011;9843;48.882;12.592;2023-01-10T08:34:47;8.87;;;7.97;;
19414;SDS011;9843;48.882;12.592;2023-01-10T08:37:14;45.27;;;12.23;;
19414;SDS011;9843;48.882;12.592;2023-01-10T08:39:41;12.43;;;10.83;;
19414;SDS011;9843;48.882;12.592;2023-01-10T08:42:10;10.13;;;9.13;;
19414;SDS011;9843;48.882;12.592;2023-01-10T08:44:37;13.80;;;10.83;;
19414;SDS011;9843;48.882;12.592;2023-01-10T08:47:04;13.47;;;8.80;;
19414;SDS011;9843;48.882;12.592;2023-01-10T08:49:31;12.13;;;8.87;;
19414;SDS011;9843;48.882;12.592;2023-01-10T08:51:59;10.50;;;7.63;;
19414;SDS011;9843;48.882;12.592;2023-01-10T08:54:27;10.40;;;9.00;;
19414;SDS011;9843;48.882;12.592;2023-01-10T08:56:54;9.07;;;7.30;;
19414;SDS011;9843;48.882;12.592;2023-01-10T08:59:23;9.47;;;8.47;;
19414;SDS011;9843;48.882;12.592;2023-01-10T09:01:50;10.87;;;7.70;;
19414;SDS011;9843;48.882;12.592;2023-01-10T09:04:17;11.50;;;8.10;;
19414;SDS011;9843;48.882;12.592;2023-01-10T09:06:44;9.70;;;7.43;;
19414;SDS011;9843;48.882;12.592;2023-01-10T09:09:11;8.87;;;7.43;;
19414;SDS011;9843;48.882;12.592;2023-01-10T09:11:38;13.27;;;6.80;;
19414;SDS011;9843;48.882;12.592;2023-01-10T09:14:05;10.90;;;7.77;;
19414;SDS011;9843;48.882;12.592;2023-01-10T09:16:33;8.73;;;6.63;;
19414;SDS011;9843;48.882;12.592;2023-01-10T09:19:00;8.63;;;5.57;;
19414;SDS011;9843;48.882;12.592;2023-01-10T09:21:27;7.10;;;6.50;;
19414;SDS011;9843;48.882;12.592;2023-01-10T09:23:54;6.90;;;6.30;;
19414;SDS011;9843;48.882;12.592;2023-01-10T09:26:21;6.90;;;6.20;;
19414;SDS011;9843;48.882;12.592;2023-01-10T09:28:48;11.50;;;7.07;;
19414;SDS011;9843;48.882;12.592;2023-01-10T09:31:15;5.80;;;5.40;;
19414;SDS011;9843;48.882;12.592;2023-01-10T09:33:44;7.17;;;6.57;;
19414;SDS011;9843;48.882;12.592;2023-01-10T09:36:13;6.77;;;5.60;;
19414;SDS011;9843;48.882;12.592;2023-01-10T09:38:40;7.83;;;6.27;;
19414;SDS011;9843;48.882;12.592;2023-01-10T09:41:13;10.27;;;9.00;;
19414;SDS011;9843;48.882;12.592;2023-01-10T09:43:46;8.03;;;7.23;;
19414;SDS011;9843;48.882;12.592;2023-01-10T09:46:19;7.97;;;6.47;;
19414;SDS011;9843;48.882;12.592;2023-01-10T09:48:53;7.83;;;7.07;;
19414;SDS011;9843;48.882;12.592;2023-01-10T09:51:26;10.83;;;6.70;;
19414;SDS011;9843;48.882;12.592;2023-01-10T09:53:56;9.33;;;6.70;;
19414;SDS011;9843;48.882;12.592;2023-01-10T09:56:24;14.53;;;8.00;;
19414;SDS011;9843;48.882;12.592;2023-01-10T09:58:51;8.23;;;7.13;;
19414;SDS011;9843;48.882;12.592;2023-01-10T10:01:20;11.13;;;7.07;;
19414;SDS011;9843;48.882;12.592;2023-01-10T10:03:52;11.40;;;7.57;;
19414;SDS011;9843;48.882;12.592;2023-01-10T10:06:21;10.67;;;9.17;;
19414;SDS011;9843;48.882;12.592;2023-01-10T10:08:48;13.17;;;9.90;;
19414;SDS011;9843;48.882;12.592;2023-01-10T10:11:22;11.03;;;7.23;;
19414;SDS011;9843;48.882;12.592;2023-01-10T10:13:53;14.47;;;8.63;;
19414;SDS011;9843;48.882;12.592;2023-01-10T10:16:24;8.97;;;5.57;;
19414;SDS011;9843;48.882;12.592;2023-01-10T10:18:58;16.07;;;7.07;;
19414;SDS011;9843;48.882;12.592;2023-01-10T10:21:27;8.03;;;5.23;;
19414;SDS011;9843;48.882;12.592;2023-01-10T10:24:00;8.77;;;5.23;;
19414;SDS011;9843;48.882;12.592;2023-01-10T10:26:31;7.67;;;4.83;;
19414;SDS011;9843;48.882;12.592;2023-01-10T10:31:49;5.17;;;4.00;;
19414;SDS011;9843;48.882;12.592;2023-01-10T10:34:20;4.10;;;3.70;;
19414;SDS011;9843;48.882;12.592;2023-01-10T10:36:50;4.30;;;3.93;;
19414;SDS011;9843;48.882;12.592;2023-01-10T10:39:18;4.67;;;4.27;;
19414;SDS011;9843;48.882;12.592;2023-01-10T10:41:47;4.27;;;3.83;;
19414;SDS011;9843;48.882;12.592;2023-01-10T10:44:21;10.80;;;4.60;;
19414;SDS011;9843;48.882;12.592;2023-01-10T10:46:51;9.60;;;5.50;;
19414;SDS011;9843;48.882;12.592;2023-01-10T10:49:22;6.50;;;4.00;;
19414;SDS011;9843;48.882;12.592;2023-01-10T10:51:50;4.47;;;4.13;;
19414;SDS011;9843;48.882;12.592;2023-01-10T10:54:17;7.20;;;4.67;;
19414;SDS011;9843;48.882;12.592;2023-01-10T10:56:45;7.53;;;4.27;;
19414;SDS011;9843;48.882;12.592;2023-01-10T10:59:14;6.00;;;5.13;;
19414;SDS011;9843;48.882;12.592;2023-01-10T11:01:43;5.70;;;4.47;;
19414;SDS011;9843;48.882;12.592;2023-01-10T11:04:13;6.80;;;5.80;;
19414;SDS011;9843;48.882;12.592;2023-01-10T11:06:42;9.47;;;6.27;;
19414;SDS011;9843;48.882;12.592;2023-01-10T11:09:13;6.60;;;5.70;;
19414;SDS011;9843;48.882;12.592;2023-01-10T11:11:42;6.97;;;6.37;;
19414;SDS011;9843;48.882;12.592;2023-01-10T11:14:10;8.13;;;5.20;;
19414;SDS011;9843;48.882;12.592;2023-01-10T11:16:38;6.50;;;4.77;;
19414;SDS011;9843;48.882;12.592;2023-01-10T11:19:12;7.77;;;5.03;;
19414;SDS011;9843;48.882;12.592;2023-01-10T11:21:39;7.40;;;5.63;;
19414;SDS011;9843;48.882;12.592;2023-01-10T11:24:17;5.73;;;4.50;;
19414;SDS011;9843;48.882;12.592;2023-01-10T11:26:46;4.33;;;3.53;;
19414;SDS011;9843;48.882;12.592;2023-01-10T11:29:14;3.47;;;3.10;;
19414;SDS011;9843;48.882;12.592;2023-01-10T11:31:42;5.27;;;3.40;;
19414;SDS011;9843;48.882;12.592;2023-01-10T11:34:16;4.93;;;4.40;;
19414;SDS011;9843;48.882;12.592;2023-01-10T11:36:53;6.63;;;4.03;;
19414;SDS011;9843;48.882;12.592;2023-01-10T11:39:21;6.90;;;4.37;;
19414;SDS011;9843;48.882;12.592;2023-01-10T11:41:48;5.90;;;4.17;;
19414;SDS011;9843;48.882;12.592;2023-01-10T11:44:20;6.73;;;3.90;;
19414;SDS011;9843;48.882;12.592;2023-01-10T11:46:47;8.53;;;4.60;;
19414;SDS011;9843;48.882;12.592;2023-01-10T11:49:16;13.23;;;4.53;;
19414;SDS011;9843;48.882;12.592;2023-01-10T11:51:47;5.17;;;4.60;;
19414;SDS011;9843;48.882;12.592;2023-01-10T11:54:16;10.43;;;3.93;;
19414;SDS011;9843;48.882;12.592;2023-01-10T11:56:49;7.50;;;5.00;;
19414;SDS011;9843;48.882;12.592;2023-01-10T11:59:18;6.37;;;5.33;;
19414;SDS011;9843;48.882;12.592;2023-01-10T12:01:46;10.40;;;6.33;;
19414;SDS011;9843;48.882;12.592;2023-01-10T12:04:14;11.53;;;5.93;;
19414;SDS011;9843;48.882;12.592;2023-01-10T12:06:42;8.50;;;6.07;;
19414;SDS011;9843;48.882;12.592;2023-01-10T12:11:53;12.10;;;7.50;;
19414;SDS011;9843;48.882;12.592;2023-01-10T12:14:26;7.17;;;6.47;;
19414;SDS011;9843;48.882;12.592;2023-01-10T12:16:57;6.73;;;5.90;;
19414;SDS011;9843;48.882;12.592;2023-01-10T12:19:25;6.97;;;4.93;;
19414;SDS011;9843;48.882;12.592;2023-01-10T12:21:52;12.63;;;6.93;;
19414;SDS011;9843;48.882;12.592;2023-01-10T12:24:22;7.97;;;6.97;;
19414;SDS011;9843;48.882;12.592;2023-01-10T12:26:50;22.33;;;7.10;;
19414;SDS011;9843;48.882;12.592;2023-01-10T12:29:20;6.33;;;5.73;;
19414;SDS011;9843;48.882;12.592;2023-01-10T12:31:48;10.63;;;5.73;;
19414;SDS011;9843;48.882;12.592;2023-01-10T12:34:17;7.03;;;5.33;;
19414;SDS011;9843;48.882;12.592;2023-01-10T12:36:48;7.20;;;4.90;;
19414;SDS011;9843;48.882;12.592;2023-01-10T12:39:18;7.50;;;5.60;;
19414;SDS011;9843;48.882;12.592;2023-01-10T12:41:52;6.97;;;5.50;;
19414;SDS011;9843;48.882;12.592;2023-01-10T12:44:40;9.67;;;6.23;;
19414;SDS011;9843;48.882;12.592;2023-01-10T12:47:23;9.20;;;5.33;;
19414;SDS011;9843;48.882;12.592;2023-01-10T12:49:56;10.10;;;5.33;;
19414;SDS011;9843;48.882;12.592;2023-01-10T12:52:27;7.23;;;4.83;;
19414;SDS011;9843;48.882;12.592;2023-01-10T12:54:55;6.80;;;5.30;;
19414;SDS011;9843;48.882;12.592;2023-01-10T12:57:24;10.17;;;6.43;;
19414;SDS011;9843;48.882;12.592;2023-01-10T12:59:53;7.83;;;5.30;;
19414;SDS011;9843;48.882;12.592;2023-01-10T13:02:21;6.87;;;5.40;;
19414;SDS011;9843;48.882;12.592;2023-01-10T13:04:50;16.67;;;6.13;;
19414;SDS011;9843;48.882;12.592;2023-01-10T13:07:19;13.67;;;5.97;;
19414;SDS011;9843;48.882;12.592;2023-01-10T13:09:46;10.50;;;5.83;;
19414;SDS011;9843;48.882;12.592;2023-01-10T13:12:15;9.60;;;5.50;;
19414;SDS011;9843;48.882;12.592;2023-01-10T13:14:47;12.73;;;6.83;;
19414;SDS011;9843;48.882;12.592;2023-01-10T13:17:21;4.97;;;4.23;;
19414;SDS011;9843;48.882;12.592;2023-01-10T13:22:32;8.57;;;5.23;;
19414;SDS011;9843;48.882;12.592;2023-01-10T13:25:00;13.03;;;5.07;;
19414;SDS011;9843;48.882;12.592;2023-01-10T13:27:30;9.37;;;4.97;;
19414;SDS011;9843;48.882;12.592;2023-01-10T13:29:57;6.83;;;4.77;;
19414;SDS011;9843;48.882;12.592;2023-01-10T13:32:27;8.07;;;4.93;;
19414;SDS011;9843;48.882;12.592;2023-01-10T13:34:55;18.83;;;4.23;;
19414;SDS011;9843;48.882;12.592;2023-01-10T13:37:36;11.43;;;5.47;;
19414;SDS011;9843;48.882;12.592;2023-01-10T13:40:04;8.83;;;4.43;;
19414;SDS011;9843;48.882;12.592;2023-01-10T13:42:32;8.77;;;6.20;;
19414;SDS011;9843;48.882;12.592;2023-01-10T13:45:21;6.37;;;4.90;;
19414;SDS011;9843;48.882;12.592;2023-01-10T13:47:57;5.53;;;4.80;;
19414;SDS011;9843;48.882;12.592;2023-01-10T13:55:56;9.10;;;6.50;;
19414;SDS011;9843;48.882;12.592;2023-01-10T14:01:32;8.87;;;6.33;;
19414;SDS011;9843;48.882;12.592;2023-01-10T14:04:20;20.30;;;6.27;;
19414;SDS011;9843;48.882;12.592;2023-01-10T14:06:52;8.67;;;5.17;;
19414;SDS011;9843;48.882;12.592;2023-01-10T14:09:31;9.13;;;5.50;;
19414;SDS011;9843;48.882;12.592;2023-01-10T14:11:59;15.23;;;8.90;;
19414;SDS011;9843;48.882;12.592;2023-01-10T14:14:28;9.17;;;5.37;;
19414;SDS011;9843;48.882;12.592;2023-01-10T14:16:57;12.70;;;6.57;;
19414;SDS011;9843;48.882;12.592;2023-01-10T14:19:36;10.17;;;5.37;;
19414;SDS011;9843;48.882;12.592;2023-01-10T14:22:03;11.23;;;6.83;;
19414;SDS011;9843;48.882;12.592;2023-01-10T14:24:34;7.87;;;5.53;;
19414;SDS011;9843;48.882;12.592;2023-01-10T14:27:05;9.83;;;6.27;;
19414;SDS011;9843;48.882;12.592;2023-01-10T14:29:33;6.90;;;4.60;;
19414;SDS011;9843;48.882;12.592;2023-01-10T14:32:00;6.00;;;5.03;;
19414;SDS011;9843;48.882;12.592;2023-01-10T14:34:28;7.00;;;4.67;;
19414;SDS011;9843;48.882;12.592;2023-01-10T14:36:58;6.10;;;5.40;;
19414;SDS011;9843;48.882;12.592;2023-01-10T14:39:25;7.93;;;5.87;;
19414;SDS011;9843;48.882;12.592;2023-01-10T14:41:53;8.53;;;5.20;;
19414;SDS011;9843;48.882;12.592;2023-01-10T14:44:22;7.43;;;5.73;;
19414;SDS011;9843;48.882;12.592;2023-01-10T14:46:52;8.30;;;5.37;;
19414;SDS011;9843;48.882;12.592;2023-01-10T14:49:21;12.10;;;5.27;;
19414;SDS011;9843;48.882;12.592;2023-01-10T14:51:48;8.60;;;4.23;;
19414;SDS011;9843;48.882;12.592;2023-01-10T14:54:17;11.07;;;5.70;;
19414;SDS011;9843;48.882;12.592;2023-01-10T14:56:45;8.17;;;5.17;;
19414;SDS011;9843;48.882;12.592;2023-01-10T14:59:16;9.20;;;5.70;;
19414;SDS011;9843;48.882;12.592;2023-01-10T15:01:45;8.50;;;5.07;;
19414;SDS011;9843;48.882;12.592;2023-01-10T15:04:13;12.43;;;5.37;;
19414;SDS011;9843;48.882;12.592;2023-01-10T15:06:51;8.17;;;5.67;;
19414;SDS011;9843;48.882;12.592;2023-01-10T15:09:20;8.37;;;5.03;;
19414;SDS011;9843;48.882;12.592;2023-01-10T15:11:47;6.23;;;4.37;;
19414;SDS011;9843;48.882;12.592;2023-01-10T15:14:15;12.87;;;4.63;;
19414;SDS011;9843;48.882;12.592;2023-01-10T15:16:43;7.37;;;5.10;;
19414;SDS011;9843;48.882;12.592;2023-01-10T15:19:11;7.50;;;4.00;;
19414;SDS011;9843;48.882;12.592;2023-01-10T15:21:40;15.83;;;6.53;;
19414;SDS011;9843;48.882;12.592;2023-01-10T15:26:51;16.13;;;4.67;;
19414;SDS011;9843;48.882;12.592;2023-01-10T15:29:19;17.57;;;6.10;;
19414;SDS011;9843;48.882;12.592;2023-01-10T15:31:47;12.60;;;5.87;;
19414;SDS011;9843;48.882;12.592;2023-01-10T15:34:16;19.70;;;6.97;;
19414;SDS011;9843;48.882;12.592;2023-01-10T15:36:44;5.90;;;4.60;;
19414;SDS011;9843;48.882;12.592;2023-01-10T15:39:16;7.90;;;5.90;;
19414;SDS011;9843;48.882;12.592;2023-01-10T15:41:44;18.73;;;6.80;;
19414;SDS011;9843;48.882;12.592;2023-01-10T15:44:22;8.00;;;5.60;;
19414;SDS011;9843;48.882;12.592;2023-01-10T15:46:53;11.63;;;5.87;;
19414;SDS011;9843;48.882;12.592;2023-01-10T15:49:21;8.73;;;6.07;;
19414;SDS011;9843;48.882;12.592;2023-01-10T15:51:49;14.03;;;6.70;;
19414;SDS011;9843;48.882;12.592;2023-01-10T15:57:03;7.67;;;5.97;;
19414;SDS011;9843;48.882;12.592;2023-01-10T15:59:33;8.90;;;5.63;;
19414;SDS011;9843;48.882;12.592;2023-01-10T16:02:04;12.27;;;6.77;;
19414;SDS011;9843;48.882;12.592;2023-01-10T16:04:32;10.13;;;6.73;;
19414;SDS011;9843;48.882;12.592;2023-01-10T16:07:04;9.43;;;6.73;;
19414;SDS011;9843;48.882;12.592;2023-01-10T16:09:31;9.03;;;5.70;;
19414;SDS011;9843;48.882;12.592;2023-01-10T16:11:59;9.20;;;6.50;;
19414;SDS011;9843;48.882;12.592;2023-01-10T16:14:45;8.57;;;5.47;;
19414;SDS011;9843;48.882;12.592;2023-01-10T16:17:12;8.53;;;5.53;;
19414;SDS011;9843;48.882;12.592;2023-01-10T16:19:39;14.97;;;5.37;;
19414;SDS011;9843;48.882;12.592;2023-01-10T16:22:06;8.90;;;6.17;;
19414;SDS011;9843;48.882;12.592;2023-01-10T16:24:34;6.57;;;5.70;;
19414;SDS011;9843;48.882;12.592;2023-01-10T16:27:02;11.57;;;5.73;;
19414;SDS011;9843;48.882;12.592;2023-01-10T16:29:30;9.50;;;5.40;;
19414;SDS011;9843;48.882;12.592;2023-01-10T16:31:58;6.80;;;5.23;;
19414;SDS011;9843;48.882;12.592;2023-01-10T16:34:25;10.80;;;6.50;;
19414;SDS011;9843;48.882;12.592;2023-01-10T16:36:53;7.53;;;6.63;;
19414;SDS011;9843;48.882;12.592;2023-01-10T16:39:21;6.50;;;5.83;;
19414;SDS011;9843;48.882;12.592;2023-01-10T16:41:49;10.60;;;6.47;;
19414;SDS011;9843;48.882;12.592;2023-01-10T16:44:33;20.77;;;9.93;;